sensor_id;sensor_type;location;lat;lon;timestamp;pressure;altitude;pressure_sealevel;temperature;humidity
35878;BME280;21982;49.804;24.072;2023-08-24T00:01:57;97479.63;;;21.26;64.30
35878;BME280;21982;49.804;24.072;2023-08-24T00:04:22;97452.69;;;21.04;64.33
35878;BME280;21982;49.804;24.072;2023-08-24T00:06:47;97480.84;;;21.19;64.33
35878;BME280;21982;49.804;24.072;2023-08-24T00:09:13;97478.41;;;21.17;64.15
35878;BME280;21982;49.804;24.072;2023-08-24T00:11:41;97418.41;;;20.73;64.29
35878;BME280;21982;49.804;24.072;2023-08-24T00:14:06;97478.16;;;21.19;64.55
35878;BME280;21982;49.804;24.072;2023-08-24T00:16:32;97484.47;;;21.24;64.53
35878;BME280;21982;49.804;24.072;2023-08-24T00:18:57;97402.31;;;20.78;64.41
35878;BME280;21982;49.804;24.072;2023-08-24T00:21:23;97464.03;;;21.28;64.33
35878;BME280;21982;49.804;24.072;2023-08-24T00:23:50;97379.16;;;20.77;64.27
35878;BME280;21982;49.804;24.072;2023-08-24T00:26:15;97361.25;;;20.66;64.26
35878;BME280;21982;49.804;24.072;2023-08-24T00:28:43;97469.75;;;21.32;64.38
35878;BME280;21982;49.804;24.072;2023-08-24T00:31:09;97433.59;;;21.06;64.40
35878;BME280;21982;49.804;24.072;2023-08-24T00:33:34;97455.91;;;21.23;64.41
35878;BME280;21982;49.804;24.072;2023-08-24T00:36:03;97479.09;;;21.51;64.22
35878;BME280;21982;49.804;24.072;2023-08-24T00:38:29;97453.94;;;21.40;63.99
35878;BME280;21982;49.804;24.072;2023-08-24T00:40:55;97465.63;;;21.51;63.91
35878;BME280;21982;49.804;24.072;2023-08-24T00:43:21;97434.22;;;21.35;63.67
35878;BME280;21982;49.804;24.072;2023-08-24T00:45:50;97473.00;;;21.61;63.66
35878;BME280;21982;49.804;24.072;2023-08-24T00:48:19;97474.94;;;21.65;63.58
35878;BME280;21982;49.804;24.072;2023-08-24T00:50:44;97468.72;;;21.65;63.56
35878;BME280;21982;49.804;24.072;2023-08-24T00:53:10;97465.03;;;21.71;63.28
35878;BME280;21982;49.804;24.072;2023-08-24T00:55:36;97456.94;;;21.71;62.92
35878;BME280;21982;49.804;24.072;2023-08-24T00:58:02;97391.38;;;21.33;62.95
35878;BME280;21982;49.804;24.072;2023-08-24T01:00:28;97409.97;;;21.35;62.41
35878;BME280;21982;49.804;24.072;2023-08-24T01:02:54;97447.88;;;21.55;62.25
35878;BME280;21982;49.804;24.072;2023-08-24T01:05:19;97451.09;;;21.52;62.26
35878;BME280;21982;49.804;24.072;2023-08-24T01:07:44;97462.38;;;21.49;62.46
35878;BME280;21982;49.804;24.072;2023-08-24T01:10:10;97460.50;;;21.50;62.37
35878;BME280;21982;49.804;24.072;2023-08-24T01:17:52;97461.03;;;21.47;62.36
35878;BME280;21982;49.804;24.072;2023-08-24T01:20:18;97445.25;;;21.33;62.00
35878;BME280;21982;49.804;24.072;2023-08-24T01:25:17;97461.72;;;21.64;61.73
35878;BME280;21982;49.804;24.072;2023-08-24T01:27:47;97459.22;;;21.57;61.61
35878;BME280;21982;49.804;24.072;2023-08-24T01:30:14;97460.69;;;21.70;61.64
35878;BME280;21982;49.804;24.072;2023-08-24T01:32:40;97429.84;;;21.56;61.38
35878;BME280;21982;49.804;24.072;2023-08-24T01:35:08;97443.00;;;21.79;61.18
35878;BME280;21982;49.804;24.072;2023-08-24T01:37:34;97446.25;;;21.81;60.96
35878;BME280;21982;49.804;24.072;2023-08-24T01:42:43;97433.88;;;21.85;60.50
35878;BME280;21982;49.804;24.072;2023-08-24T01:45:12;97354.72;;;21.32;60.82
35878;BME280;21982;49.804;24.072;2023-08-24T01:47:40;97446.88;;;21.93;61.01
35878;BME280;21982;49.804;24.072;2023-08-24T01:50:07;97434.66;;;21.81;60.98
35878;BME280;21982;49.804;24.072;2023-08-24T01:52:33;97453.84;;;21.89;61.21
35878;BME280;21982;49.804;24.072;2023-08-24T01:54:59;97427.84;;;21.73;61.26
35878;BME280;21982;49.804;24.072;2023-08-24T01:57:25;97448.69;;;21.83;61.35
35878;BME280;21982;49.804;24.072;2023-08-24T01:59:51;97420.19;;;21.60;61.52
35878;BME280;21982;49.804;24.072;2023-08-24T02:02:16;97445.66;;;21.74;61.38
35878;BME280;21982;49.804;24.072;2023-08-24T02:04:42;97457.84;;;21.82;61.75
35878;BME280;21982;49.804;24.072;2023-08-24T02:07:08;97444.03;;;21.73;61.63
35878;BME280;21982;49.804;24.072;2023-08-24T02:09:33;97443.56;;;21.81;61.69
35878;BME280;21982;49.804;24.072;2023-08-24T02:11:59;97421.34;;;21.69;61.67
35878;BME280;21982;49.804;24.072;2023-08-24T02:14:24;97468.31;;;22.05;61.55
35878;BME280;21982;49.804;24.072;2023-08-24T02:16:49;97439.31;;;21.90;61.40
35878;BME280;21982;49.804;24.072;2023-08-24T02:19:15;97462.63;;;22.01;61.63
35878;BME280;21982;49.804;24.072;2023-08-24T02:21:40;97406.75;;;21.65;61.38
35878;BME280;21982;49.804;24.072;2023-08-24T02:24:06;97470.63;;;21.96;61.71
35878;BME280;21982;49.804;24.072;2023-08-24T02:26:32;97392.09;;;21.56;61.57
35878;BME280;21982;49.804;24.072;2023-08-24T02:28:57;97453.34;;;21.92;61.67
35878;BME280;21982;49.804;24.072;2023-08-24T02:31:23;97447.88;;;21.82;61.69
35878;BME280;21982;49.804;24.072;2023-08-24T02:33:48;97461.63;;;21.81;61.93
35878;BME280;21982;49.804;24.072;2023-08-24T02:36:14;97459.75;;;21.81;62.02
35878;BME280;21982;49.804;24.072;2023-08-24T02:38:40;97465.16;;;21.86;61.78
35878;BME280;21982;49.804;24.072;2023-08-24T02:41:06;97461.69;;;21.91;61.95
35878;BME280;21982;49.804;24.072;2023-08-24T02:43:33;97459.84;;;21.96;61.83
35878;BME280;21982;49.804;24.072;2023-08-24T02:46:03;97468.59;;;22.03;61.71
35878;BME280;21982;49.804;24.072;2023-08-24T02:48:29;97433.63;;;21.87;61.95
35878;BME280;21982;49.804;24.072;2023-08-24T02:50:57;97436.16;;;21.98;61.61
35878;BME280;21982;49.804;24.072;2023-08-24T02:53:22;97449.16;;;22.01;61.77
35878;BME280;21982;49.804;24.072;2023-08-24T02:55:48;97392.97;;;21.61;61.70
35878;BME280;21982;49.804;24.072;2023-08-24T02:58:13;97451.22;;;21.94;62.07
35878;BME280;21982;49.804;24.072;2023-08-24T03:00:38;97461.38;;;21.87;62.14
35878;BME280;21982;49.804;24.072;2023-08-24T03:03:04;97454.09;;;21.83;62.27
35878;BME280;21982;49.804;24.072;2023-08-24T03:05:31;97454.34;;;21.81;62.42
35878;BME280;21982;49.804;24.072;2023-08-24T03:07:58;97455.66;;;21.79;62.33
35878;BME280;21982;49.804;24.072;2023-08-24T03:10:23;97450.53;;;21.77;62.32
35878;BME280;21982;49.804;24.072;2023-08-24T03:12:49;97436.41;;;21.65;62.36
35878;BME280;21982;49.804;24.072;2023-08-24T03:15:14;97372.00;;;21.15;62.60
35878;BME280;21982;49.804;24.072;2023-08-24T03:17:40;97423.19;;;21.36;62.91
35878;BME280;21982;49.804;24.072;2023-08-24T03:20:06;97451.88;;;21.48;63.20
35878;BME280;21982;49.804;24.072;2023-08-24T03:22:31;97413.78;;;21.17;63.33
35878;BME280;21982;49.804;24.072;2023-08-24T03:24:57;97411.06;;;21.12;63.41
35878;BME280;21982;49.804;24.072;2023-08-24T03:27:22;97445.25;;;21.33;63.47
35878;BME280;21982;49.804;24.072;2023-08-24T03:29:47;97447.50;;;21.42;63.48
35878;BME280;21982;49.804;24.072;2023-08-24T03:32:13;97412.25;;;21.21;63.56
35878;BME280;21982;49.804;24.072;2023-08-24T03:34:38;97448.63;;;21.46;63.60
35878;BME280;21982;49.804;24.072;2023-08-24T03:37:04;97451.06;;;21.47;63.63
35878;BME280;21982;49.804;24.072;2023-08-24T03:39:30;97449.19;;;21.48;63.62
35878;BME280;21982;49.804;24.072;2023-08-24T03:41:55;97461.28;;;21.45;63.75
35878;BME280;21982;49.804;24.072;2023-08-24T03:44:20;97462.22;;;21.34;63.91
35878;BME280;21982;49.804;24.072;2023-08-24T03:46:46;97461.22;;;21.40;63.95
35878;BME280;21982;49.804;24.072;2023-08-24T03:49:12;97413.69;;;21.07;64.04
35878;BME280;21982;49.804;24.072;2023-08-24T03:51:37;97441.94;;;21.26;64.18
35878;BME280;21982;49.804;24.072;2023-08-24T03:54:02;97459.91;;;21.43;64.16
35878;BME280;21982;49.804;24.072;2023-08-24T03:56:28;97456.44;;;21.47;64.19
35878;BME280;21982;49.804;24.072;2023-08-24T03:58:53;97436.09;;;21.34;64.03
35878;BME280;21982;49.804;24.072;2023-08-24T04:01:19;97450.13;;;21.36;64.08
35878;BME280;21982;49.804;24.072;2023-08-24T04:03:44;97469.44;;;21.55;64.16
35878;BME280;21982;49.804;24.072;2023-08-24T04:06:09;97460.50;;;21.50;64.09
35878;BME280;21982;49.804;24.072;2023-08-24T04:08:35;97484.84;;;21.60;64.12
35878;BME280;21982;49.804;24.072;2023-08-24T04:11:01;97449.44;;;21.46;64.13
35878;BME280;21982;49.804;24.072;2023-08-24T04:13:26;97477.69;;;21.70;64.01
35878;BME280;21982;49.804;24.072;2023-08-24T04:15:52;97473.13;;;21.71;63.89
35878;BME280;21982;49.804;24.072;2023-08-24T04:18:17;97466.72;;;21.77;63.73
35878;BME280;21982;49.804;24.072;2023-08-24T04:20:42;97469.72;;;21.86;63.58
35878;BME280;21982;49.804;24.072;2023-08-24T04:23:08;97468.66;;;21.87;63.46
35878;BME280;21982;49.804;24.072;2023-08-24T04:25:39;97487.00;;;22.12;63.21
35878;BME280;21982;49.804;24.072;2023-08-24T04:28:05;97457.66;;;21.93;62.90
35878;BME280;21982;49.804;24.072;2023-08-24T04:30:30;97481.66;;;22.17;62.81
35878;BME280;21982;49.804;24.072;2023-08-24T04:32:55;97478.97;;;22.22;62.56
35878;BME280;21982;49.804;24.072;2023-08-24T04:35:24;97427.72;;;21.90;62.61
35878;BME280;21982;49.804;24.072;2023-08-24T04:37:50;97481.19;;;22.30;62.59
35878;BME280;21982;49.804;24.072;2023-08-24T04:40:15;97480.69;;;22.33;62.18
35878;BME280;21982;49.804;24.072;2023-08-24T04:42:41;97467.63;;;22.20;62.38
35878;BME280;21982;49.804;24.072;2023-08-24T04:45:06;97490.88;;;22.26;62.43
35878;BME280;21982;49.804;24.072;2023-08-24T04:47:32;97485.78;;;22.29;62.37
35878;BME280;21982;49.804;24.072;2023-08-24T04:49:58;97487.16;;;22.32;62.38
35878;BME280;21982;49.804;24.072;2023-08-24T04:52:23;97437.34;;;22.08;61.93
35878;BME280;21982;49.804;24.072;2023-08-24T04:54:49;97490.47;;;22.44;62.20
35878;BME280;21982;49.804;24.072;2023-08-24T04:57:14;97485.38;;;22.53;61.94
35878;BME280;21982;49.804;24.072;2023-08-24T04:59:40;97482.41;;;22.49;61.43
35878;BME280;21982;49.804;24.072;2023-08-24T05:02:05;97471.13;;;22.57;61.40
35878;BME280;21982;49.804;24.072;2023-08-24T05:04:31;97439.22;;;22.44;61.13
35878;BME280;21982;49.804;24.072;2023-08-24T05:06:58;97466.59;;;22.68;61.00
35878;BME280;21982;49.804;24.072;2023-08-24T05:09:23;97416.44;;;22.30;60.93
35878;BME280;21982;49.804;24.072;2023-08-24T05:11:49;97369.22;;;21.90;61.31
35878;BME280;21982;49.804;24.072;2023-08-24T05:14:14;97479.16;;;22.47;61.48
35878;BME280;21982;49.804;24.072;2023-08-24T05:16:39;97361.03;;;21.75;61.42
35878;BME280;21982;49.804;24.072;2023-08-24T05:19:05;97475.19;;;22.60;61.59
35878;BME280;21982;49.804;24.072;2023-08-24T05:21:31;97484.53;;;22.79;61.17
35878;BME280;21982;49.804;24.072;2023-08-24T05:23:56;97396.06;;;22.49;61.22
35878;BME280;21982;49.804;24.072;2023-08-24T05:26:21;97357.47;;;22.49;60.34
35878;BME280;21982;49.804;24.072;2023-08-24T05:28:50;97455.81;;;23.20;59.92
35878;BME280;21982;49.804;24.072;2023-08-24T05:31:16;97410.09;;;23.03;59.67
35878;BME280;21982;49.804;24.072;2023-08-24T05:33:59;97492.19;;;23.75;59.41
35878;BME280;21982;49.804;24.072;2023-08-24T05:36:35;97475.72;;;23.82;58.45
35878;BME280;21982;49.804;24.072;2023-08-24T05:39:01;97229.72;;;22.23;58.42
35878;BME280;21982;49.804;24.072;2023-08-24T05:41:28;97461.09;;;23.72;58.67
35878;BME280;21982;49.804;24.072;2023-08-24T05:43:53;97504.38;;;23.98;58.18
35878;BME280;21982;49.804;24.072;2023-08-24T05:46:19;97478.97;;;23.84;58.36
35878;BME280;21982;49.804;24.072;2023-08-24T05:48:44;97383.13;;;23.24;57.76
35878;BME280;21982;49.804;24.072;2023-08-24T05:51:10;97505.75;;;23.90;58.10
35878;BME280;21982;49.804;24.072;2023-08-24T05:53:37;97423.44;;;23.46;58.58
35878;BME280;21982;49.804;24.072;2023-08-24T05:56:03;97499.25;;;24.06;58.78
35878;BME280;21982;49.804;24.072;2023-08-24T05:58:29;97497.13;;;24.24;57.78
35878;BME280;21982;49.804;24.072;2023-08-24T06:00:58;97497.94;;;24.39;57.51
35878;BME280;21982;49.804;24.072;2023-08-24T06:03:25;97509.28;;;24.67;57.01
35878;BME280;21982;49.804;24.072;2023-08-24T06:05:51;97454.34;;;24.56;55.82
35878;BME280;21982;49.804;24.072;2023-08-24T06:08:16;97508.22;;;25.48;55.19
35878;BME280;21982;49.804;24.072;2023-08-24T06:10:41;97505.31;;;26.61;53.52
35878;BME280;21982;49.804;24.072;2023-08-24T06:13:07;97430.34;;;27.51;51.18
35878;BME280;21982;49.804;24.072;2023-08-24T06:15:32;97489.56;;;29.35;47.93
35878;BME280;21982;49.804;24.072;2023-08-24T06:17:57;97452.94;;;30.22;46.22
35878;BME280;21982;49.804;24.072;2023-08-24T06:20:24;97510.75;;;31.13;44.35
35878;BME280;21982;49.804;24.072;2023-08-24T06:22:50;97503.78;;;31.47;43.58
35878;BME280;21982;49.804;24.072;2023-08-24T06:25:15;97484.84;;;31.85;42.55
35878;BME280;21982;49.804;24.072;2023-08-24T06:27:41;97495.16;;;31.96;42.23
35878;BME280;21982;49.804;24.072;2023-08-24T06:30:06;97480.66;;;31.13;41.95
35878;BME280;21982;49.804;24.072;2023-08-24T06:32:32;97509.63;;;30.16;43.58
35878;BME280;21982;49.804;24.072;2023-08-24T06:34:57;97438.47;;;29.41;44.96
35878;BME280;21982;49.804;24.072;2023-08-24T06:37:23;97516.78;;;30.48;43.09
35878;BME280;21982;49.804;24.072;2023-08-24T06:39:49;97513.25;;;31.01;42.59
35878;BME280;21982;49.804;24.072;2023-08-24T06:42:14;97519.31;;;31.77;40.86
35878;BME280;21982;49.804;24.072;2023-08-24T06:44:39;97498.75;;;31.40;40.54
35878;BME280;21982;49.804;24.072;2023-08-24T06:47:05;97516.88;;;30.88;41.66
35878;BME280;21982;49.804;24.072;2023-08-24T06:49:30;97510.03;;;30.68;41.48
35878;BME280;21982;49.804;24.072;2023-08-24T06:51:56;97509.63;;;31.71;40.39
35878;BME280;21982;49.804;24.072;2023-08-24T06:54:21;97493.66;;;32.77;38.78
35878;BME280;21982;49.804;24.072;2023-08-24T06:56:48;97471.34;;;33.84;36.91
35878;BME280;21982;49.804;24.072;2023-08-24T06:59:13;97472.44;;;34.90;35.49
35878;BME280;21982;49.804;24.072;2023-08-24T07:01:39;97514.31;;;35.93;34.21
35878;BME280;21982;49.804;24.072;2023-08-24T07:04:06;97517.28;;;36.01;33.45
35878;BME280;21982;49.804;24.072;2023-08-24T07:06:33;97515.97;;;36.50;33.20
35878;BME280;21982;49.804;24.072;2023-08-24T07:09:00;97483.19;;;36.33;32.36
35878;BME280;21982;49.804;24.072;2023-08-24T07:11:25;97474.03;;;34.91;33.69
35878;BME280;21982;49.804;24.072;2023-08-24T07:13:51;97522.72;;;33.83;34.43
35878;BME280;21982;49.804;24.072;2023-08-24T07:16:19;97494.22;;;33.38;35.28
35878;BME280;21982;49.804;24.072;2023-08-24T07:18:44;97494.16;;;34.38;34.14
35878;BME280;21982;49.804;24.072;2023-08-24T07:21:10;97521.00;;;35.68;32.50
35878;BME280;21982;49.804;24.072;2023-08-24T07:23:35;97476.69;;;36.41;31.36
35878;BME280;21982;49.804;24.072;2023-08-24T07:26:01;97520.63;;;37.53;30.19
35878;BME280;21982;49.804;24.072;2023-08-24T07:28:26;97511.28;;;37.93;29.36
35878;BME280;21982;49.804;24.072;2023-08-24T07:30:52;97476.88;;;38.09;28.84
35878;BME280;21982;49.804;24.072;2023-08-24T07:33:21;97521.59;;;38.92;27.93
35878;BME280;21982;49.804;24.072;2023-08-24T07:35:47;97528.47;;;39.44;27.78
35878;BME280;21982;49.804;24.072;2023-08-24T07:38:12;97516.59;;;39.70;26.85
35878;BME280;21982;49.804;24.072;2023-08-24T07:40:38;97535.31;;;39.50;26.38
35878;BME280;21982;49.804;24.072;2023-08-24T07:43:03;97532.72;;;38.53;26.94
35878;BME280;21982;49.804;24.072;2023-08-24T07:45:29;97500.69;;;36.97;27.73
35878;BME280;21982;49.804;24.072;2023-08-24T07:47:54;97535.38;;;36.14;28.49
35878;BME280;21982;49.804;24.072;2023-08-24T07:50:20;97533.72;;;35.73;29.40
35878;BME280;21982;49.804;24.072;2023-08-24T07:52:47;97493.56;;;35.59;28.99
35878;BME280;21982;49.804;24.072;2023-08-24T07:55:13;97527.53;;;36.84;28.18
35878;BME280;21982;49.804;24.072;2023-08-24T07:57:38;97478.09;;;37.73;27.12
35878;BME280;21982;49.804;24.072;2023-08-24T08:00:04;97537.50;;;39.18;25.93
35878;BME280;21982;49.804;24.072;2023-08-24T08:02:30;97489.50;;;39.60;25.32
35878;BME280;21982;49.804;24.072;2023-08-24T08:04:58;97531.41;;;40.37;24.85
35878;BME280;21982;49.804;24.072;2023-08-24T08:07:24;97527.16;;;41.17;24.03
35878;BME280;21982;49.804;24.072;2023-08-24T08:09:50;97530.09;;;41.94;23.63
35878;BME280;21982;49.804;24.072;2023-08-24T08:12:15;97526.44;;;42.44;22.29
35878;BME280;21982;49.804;24.072;2023-08-24T08:14:41;97536.91;;;42.83;22.75
35878;BME280;21982;49.804;24.072;2023-08-24T08:17:06;97529.69;;;42.75;22.47
35878;BME280;21982;49.804;24.072;2023-08-24T08:19:31;97513.66;;;42.40;22.49
35878;BME280;21982;49.804;24.072;2023-08-24T08:21:57;97507.06;;;41.90;22.56
35878;BME280;21982;49.804;24.072;2023-08-24T08:24:22;97520.34;;;41.59;22.90
35878;BME280;21982;49.804;24.072;2023-08-24T08:26:48;97521.25;;;41.23;23.30
35878;BME280;21982;49.804;24.072;2023-08-24T08:29:14;97506.91;;;40.43;23.37
35878;BME280;21982;49.804;24.072;2023-08-24T08:31:41;97523.84;;;39.29;24.17
35878;BME280;21982;49.804;24.072;2023-08-24T08:34:06;97523.94;;;38.90;25.24
35878;BME280;21982;49.804;24.072;2023-08-24T08:36:32;97494.50;;;39.01;25.12
35878;BME280;21982;49.804;24.072;2023-08-24T08:38:58;97526.47;;;39.44;24.50
35878;BME280;21982;49.804;24.072;2023-08-24T08:41:27;97521.13;;;39.32;24.87
35878;BME280;21982;49.804;24.072;2023-08-24T08:43:52;97476.50;;;38.49;25.40
35878;BME280;21982;49.804;24.072;2023-08-24T08:46:18;97519.78;;;39.00;25.18
35878;BME280;21982;49.804;24.072;2023-08-24T08:48:45;97523.63;;;39.14;25.81
35878;BME280;21982;49.804;24.072;2023-08-24T08:51:11;97505.50;;;39.20;25.53
35878;BME280;21982;49.804;24.072;2023-08-24T08:53:38;97508.53;;;39.61;25.18
35878;BME280;21982;49.804;24.072;2023-08-24T08:56:03;97529.59;;;40.48;24.63
35878;BME280;21982;49.804;24.072;2023-08-24T08:58:31;97529.97;;;41.21;23.99
35878;BME280;21982;49.804;24.072;2023-08-24T09:00:57;97516.69;;;41.48;24.59
35878;BME280;21982;49.804;24.072;2023-08-24T09:03:26;97526.34;;;42.27;23.05
35878;BME280;21982;49.804;24.072;2023-08-24T09:05:53;97501.41;;;42.66;22.63
35878;BME280;21982;49.804;24.072;2023-08-24T09:08:19;97501.50;;;41.35;23.43
35878;BME280;21982;49.804;24.072;2023-08-24T09:10:45;97520.22;;;39.25;25.25
35878;BME280;21982;49.804;24.072;2023-08-24T09:13:11;97468.00;;;37.30;27.13
35878;BME280;21982;49.804;24.072;2023-08-24T09:15:37;97441.09;;;37.62;26.86
35878;BME280;21982;49.804;24.072;2023-08-24T09:18:03;97515.69;;;39.13;26.58
35878;BME280;21982;49.804;24.072;2023-08-24T09:20:29;97442.88;;;39.65;25.83
35878;BME280;21982;49.804;24.072;2023-08-24T09:22:54;97474.22;;;39.43;25.57
35878;BME280;21982;49.804;24.072;2023-08-24T09:25:25;97435.66;;;37.66;26.40
35878;BME280;21982;49.804;24.072;2023-08-24T09:38:21;97507.31;;;31.56;34.51
35878;BME280;21982;49.804;24.072;2023-08-24T09:40:52;97507.66;;;31.63;33.40
35878;BME280;21982;49.804;24.072;2023-08-24T09:43:17;97473.19;;;31.45;33.28
35878;BME280;21982;49.804;24.072;2023-08-24T09:45:52;97501.53;;;31.66;32.42
35878;BME280;21982;49.804;24.072;2023-08-24T09:48:19;97500.09;;;31.60;32.43
35878;BME280;21982;49.804;24.072;2023-08-24T09:50:45;97498.81;;;31.66;33.65
35878;BME280;21982;49.804;24.072;2023-08-24T09:53:33;97433.31;;;32.77;33.20
35878;BME280;21982;49.804;24.072;2023-08-24T09:56:02;97502.53;;;34.75;30.19
35878;BME280;21982;49.804;24.072;2023-08-24T09:58:29;97463.34;;;34.12;30.35
35878;BME280;21982;49.804;24.072;2023-08-24T10:00:55;97435.81;;;32.44;31.23
35878;BME280;21982;49.804;24.072;2023-08-24T10:03:26;97496.78;;;31.80;32.97
35878;BME280;21982;49.804;24.072;2023-08-24T10:05:56;97494.03;;;31.97;32.88
35878;BME280;21982;49.804;24.072;2023-08-24T10:08:34;97480.00;;;33.06;32.43
35878;BME280;21982;49.804;24.072;2023-08-24T10:11:02;97446.81;;;33.28;31.65
35878;BME280;21982;49.804;24.072;2023-08-24T10:13:44;97486.41;;;33.99;31.17
35878;BME280;21982;49.804;24.072;2023-08-24T10:16:13;97491.72;;;35.51;29.59
35878;BME280;21982;49.804;24.072;2023-08-24T10:18:43;97490.88;;;36.00;28.89
35878;BME280;21982;49.804;24.072;2023-08-24T10:21:08;97410.06;;;34.94;29.06
35878;BME280;21982;49.804;24.072;2023-08-24T10:23:35;97464.09;;;34.66;29.82
35878;BME280;21982;49.804;24.072;2023-08-24T10:26:06;97438.06;;;33.97;29.79
35878;BME280;21982;49.804;24.072;2023-08-24T10:28:32;97413.28;;;33.14;30.10
35878;BME280;21982;49.804;24.072;2023-08-24T10:30:59;97480.25;;;32.84;31.25
35878;BME280;21982;49.804;24.072;2023-08-24T10:33:25;97466.63;;;31.97;31.91
35878;BME280;21982;49.804;24.072;2023-08-24T10:35:53;97442.66;;;31.12;32.22
35878;BME280;21982;49.804;24.072;2023-08-24T10:38:28;97457.72;;;31.00;32.58
35878;BME280;21982;49.804;24.072;2023-08-24T10:41:02;97402.06;;;30.57;33.48
35878;BME280;21982;49.804;24.072;2023-08-24T10:43:29;97438.59;;;32.18;33.51
35878;BME280;21982;49.804;24.072;2023-08-24T10:48:28;97418.41;;;34.28;29.57
35878;BME280;21982;49.804;24.072;2023-08-24T10:53:38;97476.28;;;37.65;26.30
35878;BME280;21982;49.804;24.072;2023-08-24T10:56:13;97467.84;;;38.51;26.60
35878;BME280;21982;49.804;24.072;2023-08-24T10:58:39;97434.63;;;38.51;25.90
35878;BME280;21982;49.804;24.072;2023-08-24T11:01:05;97399.69;;;38.62;25.55
35878;BME280;21982;49.804;24.072;2023-08-24T11:03:33;97464.59;;;39.37;24.22
35878;BME280;21982;49.804;24.072;2023-08-24T11:05:59;97398.84;;;39.34;25.31
35878;BME280;21982;49.804;24.072;2023-08-24T11:08:43;97455.34;;;39.78;24.25
35878;BME280;21982;49.804;24.072;2023-08-24T11:11:22;97449.97;;;39.63;24.34
35878;BME280;21982;49.804;24.072;2023-08-24T11:14:16;97453.88;;;40.18;24.30
35878;BME280;21982;49.804;24.072;2023-08-24T11:16:47;97447.72;;;40.72;22.88
35878;BME280;21982;49.804;24.072;2023-08-24T11:19:13;97445.66;;;41.06;22.85
35878;BME280;21982;49.804;24.072;2023-08-24T11:21:41;97394.47;;;40.60;22.00
35878;BME280;21982;49.804;24.072;2023-08-24T11:24:06;97434.00;;;40.87;22.37
35878;BME280;21982;49.804;24.072;2023-08-24T11:26:34;97428.06;;;41.39;21.77
35878;BME280;21982;49.804;24.072;2023-08-24T11:28:59;97414.28;;;41.02;21.81
35878;BME280;21982;49.804;24.072;2023-08-24T11:31:25;97387.69;;;41.01;21.79
35878;BME280;21982;49.804;24.072;2023-08-24T11:33:54;97424.88;;;41.37;21.87
35878;BME280;21982;49.804;24.072;2023-08-24T11:36:23;97387.69;;;41.60;21.93
35878;BME280;21982;49.804;24.072;2023-08-24T11:38:55;97413.50;;;42.65;21.45
35878;BME280;21982;49.804;24.072;2023-08-24T11:41:21;97444.56;;;43.02;20.80
35878;BME280;21982;49.804;24.072;2023-08-24T11:43:47;97385.75;;;41.67;21.24
35878;BME280;21982;49.804;24.072;2023-08-24T11:46:15;97232.53;;;39.27;22.64
35878;BME280;21982;49.804;24.072;2023-08-24T11:48:45;97439.66;;;39.37;22.79
35878;BME280;21982;49.804;24.072;2023-08-24T11:51:11;97432.28;;;38.53;23.16
35878;BME280;21982;49.804;24.072;2023-08-24T11:53:44;97410.13;;;38.95;23.57
35878;BME280;21982;49.804;24.072;2023-08-24T11:56:11;97427.00;;;39.09;23.61
35878;BME280;21982;49.804;24.072;2023-08-24T11:58:41;97394.38;;;39.26;22.91
35878;BME280;21982;49.804;24.072;2023-08-24T12:01:08;97416.34;;;38.66;23.35
35878;BME280;21982;49.804;24.072;2023-08-24T12:03:37;97375.22;;;38.03;24.91
35878;BME280;21982;49.804;24.072;2023-08-24T12:06:10;97344.75;;;37.06;25.50
35878;BME280;21982;49.804;24.072;2023-08-24T12:08:45;97418.00;;;37.89;25.34
35878;BME280;21982;49.804;24.072;2023-08-24T12:11:15;97418.84;;;38.97;25.11
35878;BME280;21982;49.804;24.072;2023-08-24T12:13:46;97269.75;;;38.99;23.10
35878;BME280;21982;49.804;24.072;2023-08-24T12:16:12;97410.47;;;39.16;24.25
35878;BME280;21982;49.804;24.072;2023-08-24T12:21:16;97342.81;;;36.28;26.92
35878;BME280;21982;49.804;24.072;2023-08-24T12:23:42;97365.28;;;35.46;26.56
35878;BME280;21982;49.804;24.072;2023-08-24T12:26:08;97336.78;;;34.53;28.27
35878;BME280;21982;49.804;24.072;2023-08-24T12:28:34;97353.50;;;35.09;28.67
35878;BME280;21982;49.804;24.072;2023-08-24T12:31:00;97387.84;;;36.64;26.46
35878;BME280;21982;49.804;24.072;2023-08-24T12:33:30;97404.13;;;36.37;27.09
35878;BME280;21982;49.804;24.072;2023-08-24T12:35:59;97369.88;;;35.82;26.94
35878;BME280;21982;49.804;24.072;2023-08-24T12:38:26;97412.41;;;36.69;26.35
35878;BME280;21982;49.804;24.072;2023-08-24T12:40:52;97392.19;;;37.47;24.98
35878;BME280;21982;49.804;24.072;2023-08-24T12:43:17;97375.84;;;38.12;24.43
35878;BME280;21982;49.804;24.072;2023-08-24T12:45:43;97348.81;;;38.05;24.33
35878;BME280;21982;49.804;24.072;2023-08-24T12:48:08;97336.31;;;37.53;24.72
35878;BME280;21982;49.804;24.072;2023-08-24T12:50:35;97364.53;;;36.77;25.07
35878;BME280;21982;49.804;24.072;2023-08-24T12:53:01;97303.03;;;36.61;25.02
35878;BME280;21982;49.804;24.072;2023-08-24T12:55:27;97366.16;;;37.29;24.34
35878;BME280;21982;49.804;24.072;2023-08-24T12:57:53;97371.47;;;37.02;24.32
35878;BME280;21982;49.804;24.072;2023-08-24T13:00:18;97363.03;;;36.79;24.61
35878;BME280;21982;49.804;24.072;2023-08-24T13:02:44;97316.56;;;36.34;24.35
35878;BME280;21982;49.804;24.072;2023-08-24T13:05:09;97211.34;;;35.57;24.62
35878;BME280;21982;49.804;24.072;2023-08-24T13:07:35;97376.38;;;36.77;25.64
35878;BME280;21982;49.804;24.072;2023-08-24T13:10:02;97362.13;;;36.91;24.29
35878;BME280;21982;49.804;24.072;2023-08-24T13:12:28;97363.47;;;36.34;24.74
35878;BME280;21982;49.804;24.072;2023-08-24T13:14:53;97365.69;;;36.01;24.58
35878;BME280;21982;49.804;24.072;2023-08-24T13:17:18;97306.31;;;34.83;25.45